createdAt,value
2018-06-24T00:01:13.511Z,3.17
2018-06-24T00:03:43.012Z,3.33
2018-06-24T00:06:12.291Z,3.50
2018-06-24T00:08:41.749Z,3.03
2018-06-24T00:11:11.543Z,3.30
2018-06-24T00:13:40.867Z,3.33
2018-06-24T00:16:10.114Z,3.30
2018-06-24T00:18:39.401Z,3.20
2018-06-24T00:21:08.719Z,3.10
2018-06-24T00:23:37.629Z,4.07
2018-06-24T00:26:06.769Z,3.27
2018-06-24T00:28:36.094Z,3.60
2018-06-24T00:31:05.339Z,3.00
2018-06-24T00:33:34.621Z,3.20
2018-06-24T00:36:03.903Z,2.93
2018-06-24T00:38:33.964Z,2.83
2018-06-24T00:41:03.216Z,3.70
2018-06-24T00:43:32.490Z,4.72
2018-06-24T00:46:02.325Z,2.70
2018-06-24T00:48:31.631Z,2.80
2018-06-24T00:51:00.887Z,3.87
2018-06-24T00:53:30.188Z,3.30
2018-06-24T00:55:59.501Z,3.50
2018-06-24T00:58:28.779Z,3.67
2018-06-24T01:00:58.615Z,3.83
2018-06-24T01:03:27.976Z,3.70
2018-06-24T01:05:57.232Z,3.60
2018-06-24T01:08:26.660Z,3.67
2018-06-24T01:10:55.955Z,3.60
2018-06-24T01:13:25.320Z,3.20
2018-06-24T01:15:54.949Z,3.30
2018-06-24T01:18:24.219Z,3.10
2018-06-24T01:20:54.283Z,3.47
2018-06-24T01:23:23.563Z,2.90
2018-06-24T01:25:52.868Z,3.40
2018-06-24T01:28:22.129Z,3.40
2018-06-24T01:30:51.480Z,3.33
2018-06-24T01:33:20.783Z,3.50
2018-06-24T01:35:50.022Z,3.70
2018-06-24T01:38:19.989Z,3.73
2018-06-24T01:40:49.315Z,3.87
2018-06-24T01:43:18.670Z,3.60
2018-06-24T01:45:48.028Z,4.00
2018-06-24T01:48:17.288Z,3.73
2018-06-24T01:50:46.522Z,3.97
2018-06-24T01:53:15.803Z,4.60
2018-06-24T01:55:44.724Z,3.87
2018-06-24T01:58:14.409Z,3.87
2018-06-24T02:00:43.760Z,3.40
2018-06-24T02:03:12.987Z,3.63
2018-06-24T02:05:42.593Z,3.87
2018-06-24T02:08:12.539Z,4.43
2018-06-24T02:10:41.820Z,3.90
2018-06-24T02:13:11.094Z,3.50
2018-06-24T02:15:40.332Z,3.47
2018-06-24T02:18:09.581Z,3.60
2018-06-24T02:20:38.854Z,3.43
2018-06-24T02:23:08.140Z,3.83
2018-06-24T02:25:37.968Z,3.43
2018-06-24T02:28:07.301Z,3.77
2018-06-24T02:30:36.649Z,3.37
2018-06-24T02:33:05.929Z,3.67
2018-06-24T02:35:35.350Z,3.23
2018-06-24T02:38:04.652Z,3.40
2018-06-24T02:40:33.951Z,3.30
2018-06-24T02:43:03.217Z,3.90
2018-06-24T02:45:32.503Z,3.50
2018-06-24T02:48:01.753Z,4.63
2018-06-24T02:50:31.060Z,3.90
2018-06-24T02:53:00.358Z,4.00
2018-06-24T02:55:29.570Z,3.70
2018-06-24T02:57:58.800Z,3.87
2018-06-24T03:00:28.077Z,3.63
2018-06-24T03:02:58.461Z,4.00
2018-06-24T03:05:27.706Z,3.75
2018-06-24T03:07:56.955Z,3.57
2018-06-24T03:10:26.261Z,3.50
2018-06-24T03:12:55.516Z,3.43
2018-06-24T03:15:25.491Z,3.67
2018-06-24T03:17:54.825Z,3.30
2018-06-24T03:20:26.565Z,3.30
2018-06-24T03:22:55.811Z,3.53
2018-06-24T03:25:25.075Z,3.17
2018-06-24T03:27:54.357Z,3.40
2018-06-24T03:30:23.687Z,2.73
2018-06-24T03:32:52.611Z,3.40
2018-06-24T03:35:21.791Z,3.33
2018-06-24T03:37:51.120Z,3.63
2018-06-24T03:40:20.377Z,3.50
2018-06-24T03:42:49.699Z,3.53
2018-06-24T03:45:18.977Z,3.40
2018-06-24T03:47:48.260Z,3.60
2018-06-24T03:50:17.525Z,3.57
2018-06-24T03:52:46.800Z,3.80
2018-06-24T03:55:16.062Z,3.20
2018-06-24T03:57:45.415Z,3.90
2018-06-24T04:00:14.690Z,3.67
2018-06-24T04:02:43.976Z,3.47
2018-06-24T04:05:13.219Z,4.00
2018-06-24T04:07:42.455Z,4.20
2018-06-24T04:10:11.674Z,3.33
2018-06-24T04:12:41.259Z,3.60
2018-06-24T04:15:11.429Z,2.83
2018-06-24T04:17:40.701Z,3.40
2018-06-24T04:20:10.792Z,3.70
2018-06-24T04:22:40.056Z,3.50
2018-06-24T04:25:09.399Z,4.07
2018-06-24T04:27:39.162Z,3.93
2018-06-24T04:30:09.820Z,3.33
2018-06-24T04:32:39.564Z,3.87
2018-06-24T04:35:08.816Z,3.67
2018-06-24T04:37:38.426Z,3.73
2018-06-24T04:40:07.577Z,3.35
2018-06-24T04:42:36.980Z,3.60
2018-06-24T04:45:06.269Z,3.30
2018-06-24T04:47:35.539Z,3.10
2018-06-24T04:50:04.996Z,3.33
2018-06-24T04:52:34.264Z,3.03
2018-06-24T04:55:03.533Z,3.33
2018-06-24T04:57:32.760Z,3.70
2018-06-24T05:00:02.028Z,3.17
2018-06-24T05:02:31.323Z,3.60
2018-06-24T05:05:00.646Z,3.62
2018-06-24T05:07:29.955Z,3.40
2018-06-24T05:09:59.321Z,3.40
2018-06-24T05:12:28.638Z,3.70
2018-06-24T05:14:57.858Z,3.70
2018-06-24T05:17:27.180Z,4.08
2018-06-24T05:19:56.471Z,3.30
2018-06-24T05:22:25.761Z,3.65
2018-06-24T05:24:54.979Z,2.80
2018-06-24T05:27:24.967Z,3.67
2018-06-24T05:29:54.252Z,3.63
2018-06-24T05:32:23.499Z,3.60
2018-06-24T05:34:52.764Z,3.43
2018-06-24T05:37:22.032Z,3.53
2018-06-24T05:39:51.381Z,3.40
2018-06-24T05:42:20.692Z,3.23
2018-06-24T05:44:50.715Z,2.90
2018-06-24T05:47:19.931Z,3.50
2018-06-24T05:49:49.223Z,3.80
2018-06-24T05:52:18.508Z,3.47
2018-06-24T05:54:48.395Z,3.37
2018-06-24T05:57:17.755Z,3.50
2018-06-24T05:59:47.026Z,3.90
2018-06-24T06:02:16.283Z,3.27
2018-06-24T06:04:45.640Z,3.70
2018-06-24T06:07:14.944Z,2.87
2018-06-24T06:09:44.563Z,3.40
2018-06-24T06:12:13.676Z,3.10
2018-06-24T06:14:42.998Z,3.02
2018-06-24T06:17:12.316Z,2.87
2018-06-24T06:19:41.927Z,2.90
2018-06-24T06:22:11.240Z,2.75
2018-06-24T06:24:40.524Z,3.33
2018-06-24T06:27:09.834Z,2.80
2018-06-24T06:29:39.115Z,3.58
2018-06-24T06:32:08.441Z,3.27
2018-06-24T06:34:38.590Z,3.80
2018-06-24T06:37:08.036Z,2.92
2018-06-24T06:39:37.358Z,3.17
2018-06-24T06:42:07.773Z,3.40
2018-06-24T06:44:37.199Z,3.02
2018-06-24T06:47:06.679Z,2.62
2018-06-24T06:49:36.003Z,3.40
2018-06-24T06:52:05.301Z,3.00
2018-06-24T06:54:35.443Z,3.00
2018-06-24T06:57:04.966Z,3.20
2018-06-24T06:59:34.313Z,2.98
2018-06-24T07:02:04.788Z,3.70
2018-06-24T07:04:34.018Z,3.85
2018-06-24T07:07:03.542Z,3.72
2018-06-24T07:09:32.819Z,3.40
2018-06-24T07:12:02.689Z,3.85
2018-06-24T07:14:32.163Z,2.80
2018-06-24T07:17:01.510Z,3.25
2018-06-24T07:19:30.863Z,3.90
2018-06-24T07:22:00.193Z,2.87
2018-06-24T07:24:29.451Z,2.85
2018-06-24T07:26:58.764Z,3.10
2018-06-24T07:29:33.251Z,3.62
2018-06-24T07:32:02.509Z,4.00
2018-06-24T07:34:31.766Z,3.60
2018-06-24T07:37:01.036Z,3.40
2018-06-24T07:39:31.251Z,3.80
2018-06-24T07:42:00.581Z,3.12
2018-06-24T07:44:29.823Z,3.10
2018-06-24T07:46:59.036Z,3.17
2018-06-24T07:49:28.298Z,3.60
2018-06-24T07:51:58.248Z,3.67
2018-06-24T07:54:27.588Z,3.90
2018-06-24T07:56:56.807Z,3.85
2018-06-24T07:59:26.118Z,4.03
2018-06-24T08:01:55.384Z,4.12
2018-06-24T08:04:24.677Z,4.20
2018-06-24T08:06:53.929Z,3.90
2018-06-24T08:09:23.268Z,4.22
2018-06-24T08:11:53.208Z,3.75
2018-06-24T08:14:22.585Z,4.20
2018-06-24T08:16:52.583Z,3.42
2018-06-24T08:19:21.920Z,3.92
2018-06-24T08:21:51.206Z,3.65
2018-06-24T08:24:20.506Z,3.72
2018-06-24T08:26:49.825Z,3.40
2018-06-24T08:29:19.259Z,3.50
2018-06-24T08:31:48.605Z,3.42
2018-06-24T08:34:17.864Z,3.65
2018-06-24T08:36:47.143Z,3.45
2018-06-24T08:39:16.464Z,3.60
2018-06-24T08:41:45.719Z,3.10
2018-06-24T08:44:15.307Z,3.33
2018-06-24T08:46:44.560Z,3.08
2018-06-24T08:49:13.875Z,3.45
2018-06-24T08:51:43.170Z,3.60
2018-06-24T08:54:12.393Z,3.33
2018-06-24T08:56:41.706Z,2.80
2018-06-24T08:59:10.963Z,3.20
2018-06-24T09:01:40.327Z,3.42
2018-06-24T09:04:09.605Z,3.50
2018-06-24T09:06:38.912Z,3.08
2018-06-24T09:09:09.979Z,3.00
2018-06-24T09:11:39.275Z,2.95
2018-06-24T09:14:08.573Z,3.60
2018-06-24T09:16:37.904Z,3.42
2018-06-24T09:19:07.231Z,3.40
2018-06-24T09:21:36.507Z,3.33
2018-06-24T09:24:06.529Z,3.10
2018-06-24T09:26:35.799Z,2.90
2018-06-24T09:29:05.140Z,2.90
2018-06-24T09:31:34.560Z,2.80
2018-06-24T09:34:05.280Z,2.58
2018-06-24T09:36:34.572Z,2.55
2018-06-24T09:39:06.410Z,2.17
2018-06-24T09:41:35.733Z,2.20
2018-06-24T09:44:04.695Z,2.20
2018-06-24T09:46:33.894Z,2.42
2018-06-24T09:49:03.133Z,2.25
2018-06-24T09:51:32.647Z,2.80
2018-06-24T09:54:01.589Z,2.22
2018-06-24T09:56:30.732Z,2.42
2018-06-24T09:58:59.976Z,3.33
2018-06-24T10:01:29.343Z,2.90
2018-06-24T10:03:58.681Z,3.42
2018-06-24T10:06:28.437Z,2.60
2018-06-24T10:08:57.688Z,3.20
2018-06-24T10:11:27.029Z,3.95
2018-06-24T10:13:56.289Z,3.35
2018-06-24T10:16:25.627Z,3.30
2018-06-24T10:18:55.462Z,3.20
2018-06-24T10:21:25.391Z,3.20
2018-06-24T10:23:54.647Z,3.58
2018-06-24T10:26:23.978Z,2.75
2018-06-24T10:28:53.347Z,2.90
2018-06-24T10:31:22.258Z,3.67
2018-06-24T10:33:51.525Z,3.40
2018-06-24T10:36:23.255Z,3.77
2018-06-24T10:38:52.648Z,3.25
2018-06-24T10:41:22.080Z,2.92
2018-06-24T10:43:51.345Z,2.77
2018-06-24T10:46:20.626Z,3.00
2018-06-24T10:48:49.883Z,2.83
2018-06-24T10:51:19.194Z,2.80
2018-06-24T10:53:49.019Z,2.52
2018-06-24T10:56:18.363Z,3.15
2018-06-24T10:58:47.265Z,2.85
2018-06-24T11:01:17.759Z,2.83
2018-06-24T11:03:47.135Z,3.00
2018-06-24T11:06:16.388Z,2.90
2018-06-24T11:08:46.363Z,3.45
2018-06-24T11:11:15.759Z,3.15
2018-06-24T11:13:45.108Z,2.70
2018-06-24T11:16:14.501Z,2.77
2018-06-24T11:18:43.769Z,2.95
2018-06-24T11:21:14.343Z,2.80
2018-06-24T11:23:42.323Z,2.70
2018-06-24T11:26:11.591Z,2.67
2018-06-24T11:28:40.855Z,2.33
2018-06-24T11:31:10.149Z,2.02
2018-06-24T11:33:39.460Z,2.10
2018-06-24T11:36:08.400Z,2.62
2018-06-24T11:38:37.912Z,2.67
2018-06-24T11:41:07.331Z,3.30
2018-06-24T11:43:36.927Z,2.65
2018-06-24T11:46:06.444Z,2.87
2018-06-24T11:48:35.728Z,3.33
2018-06-24T11:51:05.048Z,2.70
2018-06-24T11:53:34.343Z,2.58
2018-06-24T11:56:03.679Z,2.33
2018-06-24T11:58:33.045Z,2.70
2018-06-24T12:01:02.752Z,2.58
2018-06-24T12:03:32.068Z,2.33
2018-06-24T12:06:01.377Z,2.80
2018-06-24T12:08:30.623Z,2.33
2018-06-24T12:10:59.864Z,2.95
2018-06-24T12:13:29.159Z,2.58
2018-06-24T12:15:58.444Z,3.58
2018-06-24T12:18:27.719Z,3.12
2018-06-24T12:20:57.039Z,2.72
2018-06-24T12:23:26.327Z,2.60
2018-06-24T12:25:55.740Z,2.62
2018-06-24T12:28:25.079Z,2.75
2018-06-24T12:30:54.381Z,2.60
2018-06-24T12:33:23.797Z,2.67
2018-06-24T12:35:53.027Z,2.70
2018-06-24T12:38:22.312Z,2.30
2018-06-24T12:40:51.555Z,2.37
2018-06-24T12:43:21.925Z,2.75
2018-06-24T12:45:51.161Z,2.72
2018-06-24T12:48:20.466Z,2.50
2018-06-24T12:50:49.720Z,2.77
2018-06-24T12:53:18.959Z,2.50
2018-06-24T12:55:48.225Z,2.25
2018-06-24T12:58:17.551Z,2.45
2018-06-24T13:00:47.421Z,2.85
2018-06-24T13:03:16.520Z,2.60
2018-06-24T13:05:47.024Z,2.42
2018-06-24T13:08:16.412Z,2.95
2018-06-24T13:10:45.672Z,2.15
2018-06-24T13:13:14.997Z,2.05
2018-06-24T13:15:44.227Z,2.37
2018-06-24T13:18:13.487Z,2.50
2018-06-24T13:20:43.447Z,2.55
2018-06-24T13:23:12.824Z,3.05
2018-06-24T13:25:42.088Z,3.02
2018-06-24T13:28:11.354Z,3.40
2018-06-24T13:30:40.636Z,3.50
2018-06-24T13:33:11.020Z,3.40
2018-06-24T13:35:40.299Z,3.72
2018-06-24T13:38:09.609Z,3.72
2018-06-24T13:40:38.973Z,3.62
2018-06-24T13:43:08.266Z,3.10
2018-06-24T13:45:37.903Z,3.60
2018-06-24T13:48:07.603Z,3.95
2018-06-24T13:50:36.933Z,3.83
2018-06-24T13:53:06.252Z,3.95
2018-06-24T13:55:36.255Z,4.33
2018-06-24T13:58:06.077Z,3.45
2018-06-24T14:00:35.274Z,5.10
2018-06-24T14:03:04.557Z,4.15
2018-06-24T14:05:33.843Z,4.50
2018-06-24T14:08:03.132Z,3.80
2018-06-24T14:10:32.370Z,3.70
2018-06-24T14:13:01.686Z,3.87
2018-06-24T14:15:30.903Z,3.55
2018-06-24T14:18:00.240Z,3.12
2018-06-24T14:20:29.527Z,3.50
2018-06-24T14:22:58.892Z,3.00
2018-06-24T14:25:28.133Z,3.35
2018-06-24T14:27:57.457Z,3.10
2018-06-24T14:30:26.732Z,3.45
2018-06-24T14:32:56.212Z,3.10
2018-06-24T14:35:25.511Z,2.97
2018-06-24T14:37:54.787Z,2.62
2018-06-24T14:40:24.831Z,2.80
2018-06-24T14:42:54.262Z,2.40
2018-06-24T14:45:23.549Z,2.47
2018-06-24T14:47:52.893Z,2.65
2018-06-24T14:50:22.208Z,2.60
2018-06-24T14:52:51.539Z,2.60
2018-06-24T14:55:20.801Z,2.72
2018-06-24T14:57:50.240Z,3.20
2018-06-24T15:00:19.525Z,2.70
2018-06-24T15:02:48.839Z,2.87
2018-06-24T15:05:19.846Z,2.65
2018-06-24T15:07:49.116Z,2.83
2018-06-24T15:10:18.458Z,2.40
2018-06-24T15:12:47.798Z,2.10
2018-06-24T15:15:17.106Z,2.70
2018-06-24T15:17:46.446Z,2.47
2018-06-24T15:20:15.725Z,2.60
2018-06-24T15:22:44.996Z,3.12
2018-06-24T15:25:14.358Z,2.65
2018-06-24T15:27:43.681Z,2.47
2018-06-24T15:30:13.751Z,3.10
2018-06-24T15:32:43.263Z,3.08
2018-06-24T15:35:12.771Z,2.52
2018-06-24T15:37:42.279Z,2.72
2018-06-24T15:40:11.611Z,2.67
2018-06-24T15:42:40.913Z,3.22
2018-06-24T15:45:10.210Z,2.40
2018-06-24T15:47:39.667Z,2.70
2018-06-24T15:50:09.025Z,2.95
2018-06-24T15:52:38.433Z,3.00
2018-06-24T15:55:08.012Z,2.87
2018-06-24T15:57:37.340Z,2.77
2018-06-24T16:00:06.699Z,2.90
2018-06-24T16:02:36.088Z,2.83
2018-06-24T16:05:05.757Z,2.47
2018-06-24T16:07:35.048Z,2.85
2018-06-24T16:10:04.503Z,2.47
2018-06-24T16:12:33.819Z,2.47
2018-06-24T16:15:03.170Z,2.90
2018-06-24T16:17:32.555Z,2.65
2018-06-24T16:20:02.107Z,2.90
2018-06-24T16:22:31.770Z,2.65
2018-06-24T16:25:01.171Z,2.85
2018-06-24T16:27:30.095Z,2.33
2018-06-24T16:29:59.468Z,2.40
2018-06-24T16:32:28.968Z,2.50
2018-06-24T16:34:58.307Z,1.90
2018-06-24T16:37:27.681Z,2.47
2018-06-24T16:39:56.957Z,2.62
2018-06-24T16:42:26.523Z,2.30
2018-06-24T16:44:56.016Z,2.52
2018-06-24T16:47:25.342Z,2.40
2018-06-24T16:49:59.510Z,2.67
2018-06-24T16:52:28.894Z,2.35
2018-06-24T16:54:58.260Z,2.30
2018-06-24T16:57:27.717Z,2.05
2018-06-24T16:59:57.097Z,2.58
2018-06-24T17:02:26.364Z,2.40
2018-06-24T17:04:56.491Z,2.67
2018-06-24T17:07:25.787Z,2.17
2018-06-24T17:09:55.257Z,2.63
2018-06-24T17:12:24.558Z,2.50
2018-06-24T17:14:53.824Z,2.20
2018-06-24T17:17:23.160Z,2.23
2018-06-24T17:19:52.513Z,2.07
2018-06-24T17:22:22.001Z,2.40
2018-06-24T17:24:51.670Z,2.30
2018-06-24T17:27:21.105Z,2.87
2018-06-24T17:29:50.403Z,2.60
2018-06-24T17:32:19.838Z,2.77
2018-06-24T17:34:49.132Z,2.30
2018-06-24T17:37:18.447Z,2.55
2018-06-24T17:39:47.763Z,2.77
2018-06-24T17:42:17.024Z,2.53
2018-06-24T17:44:46.409Z,2.63
2018-06-24T17:47:15.751Z,2.45
2018-06-24T17:49:45.092Z,2.20
2018-06-24T17:52:15.965Z,2.20
2018-06-24T17:54:45.664Z,2.60
2018-06-24T17:57:15.107Z,2.20
2018-06-24T17:59:44.454Z,2.50
2018-06-24T18:02:13.796Z,2.53
2018-06-24T18:04:43.142Z,2.35
2018-06-24T18:07:12.770Z,2.60
2018-06-24T18:09:42.093Z,2.60
2018-06-24T18:12:11.560Z,2.50
2018-06-24T18:14:40.960Z,2.73
2018-06-24T18:17:11.080Z,2.43
2018-06-24T18:19:40.445Z,2.40
2018-06-24T18:22:09.839Z,2.45
2018-06-24T18:24:39.216Z,2.40
2018-06-24T18:27:08.627Z,2.70
2018-06-24T18:29:38.317Z,2.40
2018-06-24T18:32:07.666Z,2.60
2018-06-24T18:34:37.019Z,2.45
2018-06-24T18:37:06.373Z,2.80
2018-06-24T18:39:36.546Z,2.47
2018-06-24T18:42:05.998Z,2.90
2018-06-24T18:44:35.274Z,2.90
2018-06-24T18:47:04.641Z,2.75
2018-06-24T18:49:34.031Z,2.58
2018-06-24T18:52:03.436Z,3.23
2018-06-24T18:54:32.903Z,3.50
2018-06-24T18:57:03.254Z,2.90
2018-06-24T18:59:32.598Z,2.50
2018-06-24T19:02:03.059Z,2.83
2018-06-24T19:04:32.506Z,2.90
2018-06-24T19:07:01.982Z,3.00
2018-06-24T19:09:31.312Z,2.80
2018-06-24T19:12:00.656Z,2.93
2018-06-24T19:14:30.673Z,2.67
2018-06-24T19:17:00.122Z,2.40
2018-06-24T19:19:30.141Z,1.82
2018-06-24T19:21:59.493Z,1.73
2018-06-24T19:24:28.837Z,1.90
2018-06-24T19:26:58.395Z,1.50
2018-06-24T19:29:27.908Z,1.70
2018-06-24T19:31:57.501Z,1.70
2018-06-24T19:34:26.792Z,1.50
2018-06-24T19:36:57.079Z,1.70
2018-06-24T19:39:26.463Z,1.55
2018-06-24T19:41:55.813Z,1.50
2018-06-24T19:44:25.301Z,1.47
2018-06-24T19:46:54.668Z,1.53
2018-06-24T19:49:24.042Z,1.63
2018-06-24T19:51:53.429Z,1.50
2018-06-24T19:54:22.705Z,1.80
2018-06-24T19:56:52.084Z,1.40
2018-06-24T19:59:21.826Z,1.70
2018-06-24T20:01:51.149Z,1.70
2018-06-24T20:04:20.601Z,1.60
2018-06-24T20:06:49.970Z,1.50
2018-06-24T20:09:19.474Z,1.70
2018-06-24T20:11:48.779Z,1.50
2018-06-24T20:14:18.049Z,1.40
2018-06-24T20:16:47.410Z,1.33
2018-06-24T20:19:16.879Z,1.20
2018-06-24T20:21:46.290Z,1.30
2018-06-24T20:24:15.540Z,1.30
2018-06-24T20:26:45.000Z,1.37
2018-06-24T20:29:14.287Z,1.30
2018-06-24T20:31:43.665Z,1.40
2018-06-24T20:34:13.471Z,1.37
2018-06-24T20:36:42.803Z,1.40
2018-06-24T20:39:12.205Z,1.70
2018-06-24T20:41:41.850Z,1.40
2018-06-24T20:44:11.079Z,1.60
2018-06-24T20:46:40.080Z,1.47
2018-06-24T20:49:09.270Z,1.70
2018-06-24T20:51:38.674Z,1.30
2018-06-24T20:54:07.979Z,1.73
2018-06-24T20:56:37.343Z,1.50
2018-06-24T20:59:06.622Z,1.80
2018-06-24T21:01:36.472Z,1.50
2018-06-24T21:04:06.049Z,1.63
2018-06-24T21:06:35.373Z,1.77
2018-06-24T21:09:07.529Z,1.75
2018-06-24T21:11:36.830Z,1.80
2018-06-24T21:14:06.173Z,1.70
2018-06-24T21:16:35.758Z,1.70
2018-06-24T21:19:05.134Z,1.80
2018-06-24T21:21:34.737Z,1.90
2018-06-24T21:24:04.150Z,1.60
2018-06-24T21:26:33.476Z,1.50
2018-06-24T21:29:02.805Z,1.60
2018-06-24T21:31:32.060Z,1.77
2018-06-24T21:34:01.341Z,1.80
2018-06-24T21:36:30.668Z,2.40
2018-06-24T21:39:00.523Z,1.90
2018-06-24T21:41:29.802Z,2.00
2018-06-24T21:43:59.096Z,2.20
2018-06-24T21:46:28.096Z,1.87
2018-06-24T21:48:57.290Z,1.77
2018-06-24T21:51:26.534Z,1.93
2018-06-24T21:53:55.866Z,1.70
2018-06-24T21:56:25.251Z,2.20
2018-06-24T21:58:54.889Z,2.03
2018-06-24T22:01:24.170Z,2.07
2018-06-24T22:03:53.973Z,2.20
2018-06-24T22:06:23.101Z,2.30
2018-06-24T22:08:52.383Z,2.80
2018-06-24T22:11:21.980Z,2.73
2018-06-24T22:13:51.305Z,3.07
2018-06-24T22:16:20.639Z,3.07
2018-06-24T22:18:49.917Z,3.20
2018-06-24T22:21:19.240Z,3.42
2018-06-24T22:23:48.550Z,3.47
2018-06-24T22:26:17.875Z,3.10
2018-06-24T22:28:47.172Z,3.60
2018-06-24T22:31:17.016Z,3.50
2018-06-24T22:33:46.376Z,3.20
2018-06-24T22:36:15.646Z,3.23
2018-06-24T22:38:44.935Z,2.70
2018-06-24T22:41:14.201Z,3.00
2018-06-24T22:43:43.471Z,2.70
2018-06-24T22:46:12.712Z,3.20
2018-06-24T22:48:41.976Z,3.17
2018-06-24T22:51:11.282Z,3.10
2018-06-24T22:53:40.536Z,2.73
2018-06-24T22:56:09.816Z,2.87
2018-06-24T22:58:39.093Z,2.80
2018-06-24T23:01:09.259Z,3.30
2018-06-24T23:03:38.559Z,3.00
2018-06-24T23:06:08.103Z,2.80
2018-06-24T23:08:38.169Z,3.50
2018-06-24T23:11:07.459Z,2.93
2018-06-24T23:13:36.871Z,3.23
2018-06-24T23:16:06.938Z,3.43
2018-06-24T23:18:36.278Z,3.60
2018-06-24T23:21:05.698Z,3.50
2018-06-24T23:23:34.973Z,3.80
2018-06-24T23:26:04.222Z,3.63
2018-06-24T23:28:33.641Z,3.72
2018-06-24T23:31:04.258Z,3.60
2018-06-24T23:33:33.658Z,3.40
2018-06-24T23:36:02.967Z,4.10
2018-06-24T23:38:32.353Z,3.47
2018-06-24T23:41:01.633Z,3.40
2018-06-24T23:43:30.910Z,3.83
2018-06-24T23:46:00.182Z,3.47
2018-06-24T23:48:29.562Z,3.37
2018-06-24T23:50:58.817Z,3.90
2018-06-24T23:53:28.051Z,4.10
2018-06-24T23:55:57.639Z,4.43
2018-06-24T23:58:26.913Z,5.10
